Time;durP1;ratioP1;P1;durP2;ratioP2;P2;SDS_P1;SDS_P2;PMS_P1;PMS_P2;Temp;Humidity;BMP_temperature;BMP_pressure;BME280_temperature;BME280_humidity;BME280_pressure;Samples;Min_cycle;Max_cycle;Signal;HPM_P1;HPM_P2
2022/10/01 00:01:49;;;;;;;8.20;5.35;;;;;;;6.83;100.00;98725.94;5155035;27;20054;-76
2022/10/01 00:04:16;;;;;;;10.57;6.82;;;;;;;6.74;100.00;98738.63;5154589;27;20053;-76
2022/10/01 00:06:42;;;;;;;9.38;5.38;;;;;;;6.48;100.00;98722.63;5154797;27;20055;-75
2022/10/01 00:09:09;;;;;;;8.57;5.72;;;;;;;6.58;100.00;98735.94;5153964;27;20047;-76
2022/10/01 00:11:36;;;;;;;8.48;5.15;;;;;;;6.43;100.00;98703.34;5154623;27;20057;-76
2022/10/01 00:14:04;;;;;;;9.70;5.53;;;;;;;6.43;100.00;98719.56;5147436;27;20046;-76
2022/10/01 00:16:31;;;;;;;7.72;5.40;;;;;;;6.47;100.00;98737.13;5154567;27;20489;-76
2022/10/01 00:18:59;;;;;;;9.20;5.45;;;;;;;6.44;100.00;98715.84;5155113;27;20046;-76
2022/10/01 00:21:27;;;;;;;11.85;5.63;;;;;;;6.34;100.00;98714.16;5154572;27;20099;-76
2022/10/01 00:23:55;;;;;;;10.20;5.30;;;;;;;6.31;100.00;98716.38;5151374;27;20161;-76
2022/10/01 00:26:26;;;;;;;8.10;5.40;;;;;;;6.31;100.00;98713.69;5139479;27;20043;-76
2022/10/01 00:28:55;;;;;;;8.68;5.22;;;;;;;6.31;100.00;98703.72;5146788;27;20147;-76
2022/10/01 00:31:24;;;;;;;7.40;4.53;;;;;;;6.41;100.00;98716.19;5150441;27;20038;-75
2022/10/01 00:33:52;;;;;;;9.45;4.82;;;;;;;6.46;100.00;98719.22;5153334;27;20050;-76
2022/10/01 00:36:19;;;;;;;10.15;5.85;;;;;;;6.50;100.00;98715.16;5153568;27;20646;-76
2022/10/01 00:38:46;;;;;;;9.38;5.75;;;;;;;6.61;100.00;98716.69;5152949;27;20493;-76
2022/10/01 00:41:14;;;;;;;12.10;6.45;;;;;;;6.71;100.00;98722.75;5154328;27;20049;-76
2022/10/01 00:43:44;;;;;;;9.38;5.55;;;;;;;6.57;100.00;98693.75;5153475;27;20062;-76
2022/10/01 00:46:19;;;;;;;11.15;6.45;;;;;;;6.55;100.00;98702.03;5146201;27;20492;-76
2022/10/01 00:48:57;;;;;;;8.52;5.40;;;;;;;6.59;100.00;98697.94;5149358;27;20055;-76
2022/10/01 00:51:24;;;;;;;8.43;6.07;;;;;;;6.76;100.00;98722.22;5154222;27;20139;-76
2022/10/01 00:53:50;;;;;;;9.35;6.10;;;;;;;6.66;100.00;98708.94;5151055;27;20494;-76
2022/10/01 00:56:17;;;;;;;12.80;7.07;;;;;;;6.80;100.00;98747.91;5154252;27;20058;-76
2022/10/01 00:58:44;;;;;;;9.98;6.03;;;;;;;6.85;100.00;98745.50;5153837;27;20055;-75
2022/10/01 01:01:11;;;;;;;12.43;6.15;;;;;;;6.73;100.00;98736.94;5152566;27;20409;-76
2022/10/01 01:03:37;;;;;;;10.60;5.72;;;;;;;6.63;100.00;98715.50;5152996;27;20429;-76
2022/10/01 01:06:06;;;;;;;11.50;6.35;;;;;;;6.60;100.00;98712.31;5151963;27;20042;-76
2022/10/01 01:08:34;;;;;;;9.05;5.15;;;;;;;6.54;100.00;98711.97;5137048;27;20134;-76
2022/10/01 01:11:08;;;;;;;10.68;5.50;;;;;;;6.47;100.00;98708.25;5152303;27;20046;-76
2022/10/01 01:13:42;;;;;;;12.63;5.60;;;;;;;6.64;100.00;98735.25;5152846;27;20047;-76
2022/10/01 01:16:15;;;;;;;10.27;5.65;;;;;;;6.46;100.00;98709.28;5153783;27;20050;-76
2022/10/01 01:18:51;;;;;;;7.55;4.85;;;;;;;6.48;100.00;98723.44;5144375;27;20040;-76
2022/10/01 01:21:28;;;;;;;8.15;5.60;;;;;;;6.44;100.00;98724.78;5151443;27;20050;-76
2022/10/01 01:24:18;;;;;;;6.93;4.75;;;;;;;6.45;100.00;98718.38;5132334;27;20047;-76
2022/10/01 01:26:55;;;;;;;8.07;5.22;;;;;;;6.53;100.00;98731.03;5134375;27;20050;-75
2022/10/01 01:29:28;;;;;;;8.43;5.25;;;;;;;6.49;100.00;98717.03;5153411;27;20050;-75
2022/10/01 01:32:00;;;;;;;6.32;4.90;;;;;;;6.44;100.00;98703.19;5142565;27;20039;-76
2022/10/01 01:34:29;;;;;;;9.00;5.13;;;;;;;6.47;100.00;98693.91;5147873;27;20042;-76
2022/10/01 01:37:01;;;;;;;8.43;5.10;;;;;;;6.50;100.00;98690.88;5149703;27;20043;-76
2022/10/01 01:39:32;;;;;;;8.73;5.30;;;;;;;6.44;100.00;98668.09;5153012;27;20519;-76
2022/10/01 01:42:04;;;;;;;11.55;6.35;;;;;;;6.51;100.00;98673.66;5153072;27;20355;-76
2022/10/01 01:44:38;;;;;;;8.13;5.30;;;;;;;6.71;100.00;98690.34;5153054;27;20051;-75
2022/10/01 01:47:07;;;;;;;10.45;5.85;;;;;;;6.53;100.00;98650.88;5150729;27;20060;-75
2022/10/01 01:49:34;;;;;;;13.00;5.83;;;;;;;6.74;100.00;98687.28;5144035;27;20047;-76
2022/10/01 01:52:05;;;;;;;11.75;5.32;;;;;;;6.69;100.00;98673.47;5151822;27;20302;-75
2022/10/01 01:54:34;;;;;;;8.00;5.28;;;;;;;6.62;100.00;98661.66;5141660;27;20054;-76
2022/10/01 01:57:03;;;;;;;8.70;5.05;;;;;;;6.62;100.00;98670.59;5132739;27;20043;-76
2022/10/01 01:59:32;;;;;;;8.52;5.38;;;;;;;6.59;100.00;98656.59;5131961;27;20057;-76
2022/10/01 02:01:59;;;;;;;8.10;4.70;;;;;;;6.57;100.00;98654.06;5132178;27;20043;-76
2022/10/01 02:04:30;;;;;;;8.10;5.10;;;;;;;6.62;100.00;98650.84;5149623;27;20042;-76
2022/10/01 02:07:14;;;;;;;7.40;4.95;;;;;;;6.64;100.00;98655.06;5144635;27;20050;-76
2022/10/01 02:09:50;;;;;;;7.30;4.97;;;;;;;6.67;100.00;98656.56;5150750;27;20047;-76
2022/10/01 02:12:30;;;;;;;6.93;4.57;;;;;;;6.63;100.00;98656.06;5152091;27;20123;-76
2022/10/01 02:15:09;;;;;;;6.38;4.82;;;;;;;6.56;100.00;98638.88;5153032;27;20133;-76
2022/10/01 02:17:45;;;;;;;8.93;5.13;;;;;;;6.61;100.00;98628.41;5145339;27;20406;-76
2022/10/01 02:20:17;;;;;;;7.05;5.07;;;;;;;6.76;100.00;98644.75;5144502;27;20099;-76
2022/10/01 02:22:51;;;;;;;9.23;4.72;;;;;;;6.84;100.00;98651.97;5150645;27;20054;-76
2022/10/01 02:25:19;;;;;;;13.02;5.03;;;;;;;6.89;100.00;98630.69;5145412;27;20043;-76
2022/10/01 02:27:54;;;;;;;6.45;4.50;;;;;;;6.94;100.00;98638.25;5150210;27;20054;-75
2022/10/01 02:30:22;;;;;;;6.07;4.82;;;;;;;7.11;100.00;98658.81;5152511;27;20046;-76
2022/10/01 02:32:51;;;;;;;7.55;4.97;;;;;;;6.99;100.00;98650.25;5144935;27;20047;-76
2022/10/01 02:35:20;;;;;;;6.80;4.43;;;;;;;6.90;100.00;98645.88;5152526;27;20109;-76
2022/10/01 02:37:51;;;;;;;5.80;4.37;;;;;;;6.90;100.00;98638.59;5150657;27;20059;-76
2022/10/01 02:40:21;;;;;;;8.45;4.82;;;;;;;7.01;100.00;98642.78;5150980;27;20299;-75
2022/10/01 02:42:52;;;;;;;7.78;4.88;;;;;;;7.05;100.00;98652.22;5151291;27;20051;-75
2022/10/01 02:45:23;;;;;;;8.15;5.55;;;;;;;7.01;100.00;98631.16;5152426;27;20047;-75
2022/10/01 02:47:54;;;;;;;9.30;5.18;;;;;;;7.12;100.00;98648.81;5150030;27;20042;-76
2022/10/01 02:50:22;;;;;;;6.38;4.57;;;;;;;6.93;100.00;98607.69;5148269;27;20047;-76
2022/10/01 02:52:55;;;;;;;6.82;4.82;;;;;;;6.92;100.00;98622.22;5151013;27;20051;-76
2022/10/01 02:55:27;;;;;;;7.88;5.00;;;;;;;6.97;100.00;98625.25;5144574;27;20050;-76
2022/10/01 02:57:53;;;;;;;5.65;4.13;;;;;;;7.15;100.00;98648.47;5143483;27;20482;-76
2022/10/01 03:00:20;;;;;;;6.20;4.47;;;;;;;7.13;100.00;98634.31;5156190;27;20095;-76
2022/10/01 03:02:49;;;;;;;7.25;4.32;;;;;;;7.16;100.00;98636.66;5153727;27;20050;-75
2022/10/01 03:05:16;;;;;;;6.70;4.18;;;;;;;7.01;100.00;98623.88;5156204;27;20058;-76
2022/10/01 03:07:43;;;;;;;5.68;3.83;;;;;;;7.15;100.00;98649.34;5156181;27;20402;-76
2022/10/01 03:10:11;;;;;;;5.45;4.38;;;;;;;7.00;100.00;98633.00;5156163;27;20074;-76
2022/10/01 03:12:43;;;;;;;6.15;3.95;;;;;;;7.05;100.00;98636.03;5153508;27;20050;-76
2022/10/01 03:15:11;;;;;;;9.40;4.15;;;;;;;7.13;100.00;98645.13;5149143;27;20042;-76
2022/10/01 03:17:37;;;;;;;5.55;3.65;;;;;;;6.85;100.00;98607.72;5154744;27;20034;-76
2022/10/01 03:20:06;;;;;;;6.18;4.07;;;;;;;6.99;100.00;98630.47;5156253;27;20042;-75
2022/10/01 03:22:33;;;;;;;6.45;4.07;;;;;;;6.80;100.00;98604.72;5155243;27;20046;-76
2022/10/01 03:25:00;;;;;;;5.95;3.97;;;;;;;6.98;100.00;98632.31;5155946;27;20043;-75
2022/10/01 03:27:26;;;;;;;4.72;3.90;;;;;;;6.82;100.00;98597.25;5155865;27;20038;-76
2022/10/01 03:29:53;;;;;;;7.90;4.28;;;;;;;6.89;100.00;98603.66;5148177;27;20047;-76
2022/10/01 03:32:20;;;;;;;5.97;4.03;;;;;;;6.94;100.00;98601.28;5148495;27;20512;-76
2022/10/01 03:34:47;;;;;;;5.75;4.10;;;;;;;6.98;100.00;98597.19;5155393;27;20103;-76
2022/10/01 03:37:15;;;;;;;6.25;3.63;;;;;;;7.18;100.00;98611.13;5154251;27;20049;-76
2022/10/01 03:39:41;;;;;;;4.72;3.58;;;;;;;7.08;100.00;98605.09;5155221;27;20129;-76
2022/10/01 03:42:08;;;;;;;5.68;3.72;;;;;;;7.28;100.00;98627.13;5154954;27;20057;-75
2022/10/01 03:44:35;;;;;;;6.03;3.90;;;;;;;7.27;100.00;98625.44;5154125;27;20054;-76
2022/10/01 03:47:01;;;;;;;3.92;2.97;;;;;;;7.29;100.00;98603.63;5152510;27;20047;-75
2022/10/01 03:49:28;;;;;;;4.60;3.35;;;;;;;7.29;100.00;98609.91;5155238;27;20494;-76
2022/10/01 03:51:55;;;;;;;4.18;2.90;;;;;;;7.34;100.00;98615.59;5155770;27;20054;-76
2022/10/01 03:54:24;;;;;;;7.22;3.40;;;;;;;7.21;100.00;98583.75;5154810;27;20047;-76
2022/10/01 03:56:51;;;;;;;4.47;3.13;;;;;;;7.18;100.00;98580.53;5155392;27;20047;-76
2022/10/01 03:59:18;;;;;;;4.15;2.70;;;;;;;7.31;100.00;98577.28;5153969;27;20121;-76
2022/10/01 04:01:45;;;;;;;5.57;3.40;;;;;;;7.28;100.00;98578.47;5146944;27;20516;-76
2022/10/01 04:04:12;;;;;;;4.43;3.40;;;;;;;7.51;100.00;98601.97;5152588;27;20046;-76
2022/10/01 04:06:38;;;;;;;4.68;3.15;;;;;;;7.39;100.00;98605.09;5154978;27;20042;-76
2022/10/01 04:09:05;;;;;;;3.45;2.75;;;;;;;7.28;100.00;98573.06;5154399;27;20074;-76
2022/10/01 04:11:33;;;;;;;5.10;2.80;;;;;;;7.28;100.00;98564.94;5154865;27;20046;-76
2022/10/01 04:13:59;;;;;;;3.85;2.60;;;;;;;7.49;100.00;98585.94;5151465;27;20046;-76
2022/10/01 04:16:26;;;;;;;2.83;2.50;;;;;;;7.39;100.00;98564.53;5148822;27;20053;-75
2022/10/01 04:18:52;;;;;;;5.50;2.42;;;;;;;7.39;100.00;98553.72;5145088;27;20051;-75
2022/10/01 04:21:19;;;;;;;3.75;2.50;;;;;;;7.41;100.00;98556.25;5154033;27;20047;-76
2022/10/01 04:23:46;;;;;;;3.67;2.63;;;;;;;7.58;100.00;98584.03;5154133;27;20052;-76
2022/10/01 04:26:12;;;;;;;4.00;2.33;;;;;;;7.42;100.00;98561.47;5154601;27;20493;-75
2022/10/01 04:28:40;;;;;;;4.47;2.80;;;;;;;7.62;100.00;98583.47;5141794;27;20043;-75
2022/10/01 04:33:50;;;;;;;3.28;2.33;;;;;;;7.62;100.00;98577.22;5153611;27;20514;-75
2022/10/01 04:36:17;;;;;;;4.07;2.42;;;;;;;7.59;100.00;98566.78;5151702;27;20127;-76
2022/10/01 04:38:43;;;;;;;4.25;2.78;;;;;;;7.64;100.00;98561.66;5150189;27;20049;-75
2022/10/01 04:41:10;;;;;;;3.25;2.40;;;;;;;7.61;100.00;98545.78;5133711;27;20043;-76
2022/10/01 04:43:36;;;;;;;3.35;2.55;;;;;;;7.63;100.00;98554.56;5132304;27;20058;-76
2022/10/01 04:46:04;;;;;;;4.00;2.55;;;;;;;7.74;100.00;98578.50;5153870;27;20046;-76
2022/10/01 04:48:31;;;;;;;4.75;2.50;;;;;;;7.63;100.00;98543.72;5154208;27;20046;-75
2022/10/01 04:50:57;;;;;;;4.35;2.08;;;;;;;7.65;100.00;98538.13;5154349;27;20061;-76
2022/10/01 04:53:24;;;;;;;5.88;2.30;;;;;;;7.79;100.00;98557.13;5146855;27;20043;-75
2022/10/01 04:55:51;;;;;;;4.90;2.60;;;;;;;7.92;100.00;98572.75;5152072;27;20051;-75
2022/10/01 04:58:17;;;;;;;5.07;2.63;;;;;;;7.75;100.00;98554.97;5153193;27;20043;-76
2022/10/01 05:00:44;;;;;;;5.45;3.33;;;;;;;7.91;100.00;98589.19;5153863;27;20053;-75
2022/10/01 05:03:12;;;;;;;5.22;2.80;;;;;;;8.01;100.00;98580.78;5153433;27;20051;-76
2022/10/01 05:05:39;;;;;;;5.03;2.80;;;;;;;8.08;100.00;98579.88;5153722;27;20055;-75
2022/10/01 05:08:06;;;;;;;5.60;3.20;;;;;;;8.11;100.00;98579.53;5154263;27;20042;-75
2022/10/01 05:10:34;;;;;;;21.48;2.95;;;;;;;8.10;100.00;98563.44;5149916;27;20058;-75
2022/10/01 05:13:01;;;;;;;4.18;2.83;;;;;;;8.09;100.00;98569.91;5140813;27;20070;-76
2022/10/01 05:15:28;;;;;;;4.63;2.47;;;;;;;8.11;100.00;98574.13;5153769;27;20134;-75
2022/10/01 05:17:55;;;;;;;2.97;2.47;;;;;;;8.24;100.00;98583.47;5153899;27;20043;-75
2022/10/01 05:20:25;;;;;;;2.83;2.40;;;;;;;8.21;100.00;98567.59;5152632;27;20047;-76
2022/10/01 05:22:53;;;;;;;2.75;2.22;;;;;;;8.22;100.00;98563.84;5152924;27;20043;-75
2022/10/01 05:25:20;;;;;;;5.18;2.33;;;;;;;8.17;100.00;98539.22;5152182;27;20443;-75
2022/10/01 05:27:47;;;;;;;8.52;2.60;;;;;;;8.36;100.00;98562.22;5152448;27;20046;-75
2022/10/01 05:30:18;;;;;;;3.53;1.92;;;;;;;8.33;100.00;98564.25;5149036;27;20042;-76
2022/10/01 05:32:54;;;;;;;5.07;2.22;;;;;;;8.14;100.00;98535.84;5152546;27;20194;-76
2022/10/01 05:35:20;;;;;;;3.13;2.00;;;;;;;8.30;100.00;98559.19;5153205;27;20127;-76
2022/10/01 05:37:52;;;;;;;2.15;1.67;;;;;;;8.21;100.00;98540.53;5151860;27;20481;-76
2022/10/01 05:40:18;;;;;;;3.15;2.15;;;;;;;8.24;100.00;98537.44;5149412;27;20055;-76
2022/10/01 05:42:45;;;;;;;3.15;2.15;;;;;;;8.41;100.00;98557.91;5149170;27;20061;-76
2022/10/01 05:45:12;;;;;;;4.85;1.85;;;;;;;8.38;100.00;98546.59;5137844;27;20039;-76
2022/10/01 05:47:42;;;;;;;3.40;1.80;;;;;;;8.32;100.00;98545.47;5153177;27;20547;-76
2022/10/01 05:50:09;;;;;;;1.50;1.25;;;;;;;8.31;100.00;98541.94;5153087;27;20050;-76
2022/10/01 05:52:36;;;;;;;1.83;1.60;;;;;;;8.46;100.00;98554.66;5152412;27;20050;-76
2022/10/01 05:55:05;;;;;;;3.35;1.92;;;;;;;8.38;100.00;98536.59;5144032;27;20051;-76
2022/10/01 05:57:32;;;;;;;2.08;1.70;;;;;;;8.38;100.00;98535.75;5147774;27;20042;-76
2022/10/01 05:59:58;;;;;;;2.33;1.67;;;;;;;8.53;100.00;98554.78;5152996;27;20047;-76
2022/10/01 06:02:25;;;;;;;3.00;1.73;;;;;;;8.49;100.00;98530.75;5149261;27;20043;-76
2022/10/01 06:04:52;;;;;;;2.33;1.70;;;;;;;8.51;100.00;98527.88;5152544;27;20047;-76
2022/10/01 06:07:18;;;;;;;2.33;1.65;;;;;;;8.40;100.00;98514.75;5152705;27;20053;-76
2022/10/01 06:09:45;;;;;;;1.98;1.58;;;;;;;8.33;100.00;98496.53;5151758;27;20489;-75
2022/10/01 06:12:12;;;;;;;2.10;1.77;;;;;;;8.37;100.00;98498.88;5151681;27;20054;-75
2022/10/01 06:14:39;;;;;;;3.50;1.90;;;;;;;8.33;100.00;98506.53;5152884;27;20042;-75
2022/10/01 06:17:06;;;;;;;4.75;1.98;;;;;;;8.26;100.00;98503.72;5152710;27;20103;-75
2022/10/01 06:19:32;;;;;;;4.40;1.73;;;;;;;8.35;100.00;98520.72;5149023;27;20050;-75
2022/10/01 06:21:59;;;;;;;5.35;2.50;;;;;;;8.25;100.00;98493.94;5152435;27;20054;-75
2022/10/01 06:24:25;;;;;;;3.25;1.88;;;;;;;8.22;100.00;98494.31;5145590;27;20039;-75
2022/10/01 06:26:52;;;;;;;2.28;1.73;;;;;;;8.17;100.00;98496.72;5151499;27;20046;-75
2022/10/01 06:29:20;;;;;;;3.22;1.90;;;;;;;8.36;100.00;98527.81;5147463;27;20565;-75
2022/10/01 06:31:47;;;;;;;7.70;1.70;;;;;;;8.21;100.00;98497.19;5134309;27;20051;-75
2022/10/01 06:34:13;;;;;;;3.60;1.95;;;;;;;8.29;100.00;98518.75;5151675;27;20401;-75
2022/10/01 06:36:40;;;;;;;7.38;1.98;;;;;;;8.13;100.00;98490.84;5141203;27;20043;-75
2022/10/01 06:39:06;;;;;;;1.92;1.67;;;;;;;8.20;100.00;98512.59;5131932;27;20054;-75
2022/10/01 06:41:33;;;;;;;6.25;1.63;;;;;;;8.29;100.00;98524.19;5131153;27;20051;-75
2022/10/01 06:44:01;;;;;;;3.13;1.50;;;;;;;8.29;100.00;98524.19;5136151;27;20133;-75
2022/10/01 06:46:30;;;;;;;2.88;1.55;;;;;;;8.31;100.00;98514.84;5151970;27;20043;-75
2022/10/01 06:48:57;;;;;;;3.03;1.50;;;;;;;8.32;100.00;98507.56;5152804;27;20049;-75
2022/10/01 06:52:47;;;;;;;3.05;1.73;;;;;;;8.36;100.00;98508.88;5153332;27;20501;-74
2022/10/01 06:54:10;;;;;;;2.03;1.52;;;;;;;8.49;100.00;98519.94;5148241;27;20084;-75
2022/10/01 06:56:37;;;;;;;3.67;1.50;;;;;;;8.44;100.00;98519.63;5151990;27;20043;-75
2022/10/01 06:59:03;;;;;;;3.13;1.60;;;;;;;8.50;100.00;98532.41;5148905;27;20402;-75
2022/10/01 07:01:32;;;;;;;3.45;1.42;;;;;;;8.53;100.00;98517.66;5141251;27;20043;-75
2022/10/01 07:03:58;;;;;;;3.05;1.42;;;;;;;8.41;100.00;98495.59;5149371;27;20413;-75
2022/10/01 07:06:25;;;;;;;8.63;1.63;;;;;;;8.42;100.00;98491.88;5152368;27;20046;-75
2022/10/01 07:08:52;;;;;;;2.28;1.75;;;;;;;8.43;100.00;98488.13;5151121;27;20047;-75
2022/10/01 07:11:18;;;;;;;7.65;2.33;;;;;;;8.65;100.00;98516.16;5146669;27;20490;-75
2022/10/01 07:13:45;;;;;;;4.13;2.30;;;;;;;8.49;100.00;98502.81;5146146;27;20054;-75
2022/10/01 07:16:12;;;;;;;2.00;1.83;;;;;;;8.57;100.00;98527.13;5138900;27;20670;-75
2022/10/01 07:18:40;;;;;;;2.70;2.00;;;;;;;8.68;100.00;98514.94;5148019;27;20042;-75
2022/10/01 07:21:06;;;;;;;7.63;1.73;;;;;;;8.62;100.00;98504.88;5131165;27;20502;-74
2022/10/01 07:23:33;;;;;;;8.57;1.85;;;;;;;8.52;100.00;98496.19;5130313;27;20490;-74
2022/10/01 07:25:59;;;;;;;3.70;2.10;;;;;;;8.50;100.00;98478.25;5131383;27;20058;-74
2022/10/01 07:28:26;;;;;;;2.38;1.75;;;;;;;8.62;100.00;98494.88;5133521;27;20054;-73
2022/10/01 07:31:01;;;;;;;2.20;1.42;;;;;;;8.46;100.00;98473.38;5150921;27;20054;-74
2022/10/01 07:33:28;;;;;;;3.15;1.38;;;;;;;8.39;100.00;98473.28;5145572;27;20035;-74
2022/10/01 07:36:00;;;;;;;10.10;2.08;;;;;;;8.64;100.00;98486.53;5151488;27;20057;-75
2022/10/01 07:38:26;;;;;;;1.95;1.33;;;;;;;8.49;100.00;98475.72;5149919;27;20046;-74
2022/10/01 07:40:54;;;;;;;7.80;1.98;;;;;;;8.49;100.00;98484.72;5150759;27;20062;-74
2022/10/01 07:43:21;;;;;;;4.22;2.30;;;;;;;8.57;100.00;98497.31;5149075;27;20046;-74
2022/10/01 07:45:48;;;;;;;6.40;3.22;;;;;;;8.57;100.00;98494.59;5155462;27;20050;-74
2022/10/01 07:48:15;;;;;;;6.35;4.10;;;;;;;8.43;100.00;98480.00;5147843;27;20489;-77
2022/10/01 07:50:43;;;;;;;9.63;2.53;;;;;;;8.42;100.00;98494.56;5154711;27;20051;-76
2022/10/01 07:53:12;;;;;;;2.90;2.28;;;;;;;8.50;100.00;98507.22;5154150;27;20095;-75
2022/10/01 07:55:39;;;;;;;2.05;1.67;;;;;;;8.46;100.00;98505.91;5155708;27;20130;-77
2022/10/01 07:58:06;;;;;;;3.97;1.73;;;;;;;8.53;100.00;98503.28;5144538;27;20045;-74
2022/10/01 08:00:34;;;;;;;8.98;2.58;;;;;;;8.34;100.00;98486.56;5155298;27;20042;-75
2022/10/01 08:03:01;;;;;;;2.42;2.00;;;;;;;8.55;100.00;98515.63;5150923;27;20043;-74
2022/10/01 08:05:29;;;;;;;5.32;2.03;;;;;;;8.48;100.00;98493.03;5155131;27;20498;-74
2022/10/01 08:07:58;;;;;;;4.50;1.90;;;;;;;8.46;100.00;98490.50;5155463;27;20495;-74
2022/10/01 08:10:26;;;;;;;3.75;2.03;;;;;;;8.59;100.00;98506.06;5152855;27;20074;-74
2022/10/01 08:13:00;;;;;;;4.47;1.65;;;;;;;8.72;100.00;98516.25;5145706;27;20036;-76
2022/10/01 08:15:27;;;;;;;6.15;1.75;;;;;;;8.54;100.00;98503.09;5153977;27;20046;-76
2022/10/01 08:17:54;;;;;;;6.30;2.03;;;;;;;8.55;100.00;98510.22;5154840;27;20054;-76
2022/10/01 08:20:20;;;;;;;8.07;2.10;;;;;;;8.51;100.00;98492.66;5155188;27;20054;-75
2022/10/01 08:22:47;;;;;;;3.05;1.85;;;;;;;8.62;100.00;98503.00;5153874;27;20054;-74
2022/10/01 08:25:13;;;;;;;7.95;2.25;;;;;;;8.78;100.00;98520.91;5155167;27;20062;-74
2022/10/01 08:27:41;;;;;;;2.35;1.70;;;;;;;8.67;100.00;98516.84;5147681;27;20130;-74
2022/10/01 08:30:09;;;;;;;4.53;2.20;;;;;;;8.72;100.00;98512.72;5147291;27;20505;-74
2022/10/01 08:32:35;;;;;;;6.40;2.38;;;;;;;8.69;100.00;98511.22;5154775;27;20047;-74
2022/10/01 08:35:03;;;;;;;4.07;1.90;;;;;;;8.82;100.00;98530.38;5155991;27;20047;-74
2022/10/01 08:37:30;;;;;;;3.35;1.92;;;;;;;8.77;100.00;98529.25;5156319;27;20403;-75
2022/10/01 08:39:57;;;;;;;2.78;1.80;;;;;;;8.73;100.00;98517.09;5156616;27;20057;-75
2022/10/01 08:42:48;;;;;;;5.78;2.17;;;;;;;8.73;100.00;98512.53;5155588;27;20057;-74
2022/10/01 08:45:21;;;;;;;4.35;2.30;;;;;;;8.89;100.00;98532.31;5145631;27;20111;-74
2022/10/01 08:47:54;;;;;;;5.40;1.80;;;;;;;8.80;100.00;98510.72;5155226;27;20587;-74
2022/10/01 08:50:35;;;;;;;3.58;2.10;;;;;;;8.80;100.00;98499.06;5156374;27;20413;-74
2022/10/01 08:53:02;;;;;;;;;;;;;;;8.84;100.00;98524.75;5156057;27;20050;-74
2022/10/01 08:55:35;;;;;;;5.50;1.98;;;;;;;8.85;100.00;98518.28;5155783;27;20388;-74
2022/10/01 08:58:05;;;;;;;3.58;2.00;;;;;;;8.72;100.00;98513.56;5156303;27;20064;-74
2022/10/01 09:00:35;;;;;;;4.55;2.17;;;;;;;8.84;100.00;98546.44;5151350;27;20057;-74
2022/10/01 09:03:07;;;;;;;3.58;2.08;;;;;;;8.79;100.00;98522.63;5147178;27;20567;-74
2022/10/01 09:05:47;;;;;;;3.75;2.25;;;;;;;8.77;100.00;98505.69;5154059;27;20143;-74
2022/10/01 09:08:23;;;;;;;3.45;2.70;;;;;;;8.78;100.00;98501.13;5154034;27;20474;-74
2022/10/01 09:10:55;;;;;;;3.95;2.05;;;;;;;8.82;100.00;98513.25;5141969;27;20051;-74
2022/10/01 09:13:45;;;;;;;3.88;2.03;;;;;;;8.79;100.00;98516.34;5133751;27;20104;-74
2022/10/01 09:16:19;;;;;;;5.35;1.90;;;;;;;8.88;100.00;98507.06;5107501;27;20663;-74
2022/10/01 09:19:02;;;;;;;2.10;1.85;;;;;;;8.89;100.00;98510.63;5151110;27;20051;-74
2022/10/01 09:21:46;;;;;;;2.05;1.85;;;;;;;8.99;100.00;98501.16;5154931;27;20043;-74
2022/10/01 09:24:15;;;;;;;3.55;2.20;;;;;;;9.08;100.00;98503.75;5152747;27;20050;-74
2022/10/01 09:26:47;;;;;;;3.00;1.93;;;;;;;9.24;100.00;98508.94;5153599;27;20058;-75
2022/10/01 09:29:22;;;;;;;2.70;2.00;;;;;;;9.27;100.00;98494.97;5152419;27;20342;-74
2022/10/01 09:31:53;;;;;;;2.45;2.20;;;;;;;9.26;100.00;98503.31;5148343;27;20426;-74
2022/10/01 09:34:28;;;;;;;3.50;1.98;;;;;;;9.29;100.00;98508.34;5132007;27;20046;-74
2022/10/01 09:37:04;;;;;;;6.20;2.00;;;;;;;9.14;100.00;98505.72;5147334;27;20405;-75
2022/10/01 09:39:38;;;;;;;1.77;1.38;;;;;;;9.21;100.00;98517.44;5147907;27;20046;-74
2022/10/01 09:42:05;;;;;;;2.58;1.85;;;;;;;9.21;100.00;98526.44;5132134;27;20073;-75
2022/10/01 09:44:34;;;;;;;5.15;2.22;;;;;;;9.17;100.00;98508.88;5137512;27;20047;-76
2022/10/01 09:47:00;;;;;;;1.98;1.70;;;;;;;9.28;100.00;98525.69;5153495;27;20054;-75
2022/10/01 09:49:32;;;;;;;2.78;2.00;;;;;;;9.25;100.00;98540.44;5151083;27;20501;-75
2022/10/01 09:52:03;;;;;;;1.95;1.80;;;;;;;9.23;100.00;98544.38;5151059;27;20501;-74
2022/10/01 09:54:35;;;;;;;4.78;2.20;;;;;;;9.23;100.00;98530.81;5147438;27;20047;-74
2022/10/01 09:57:09;;;;;;;2.53;1.88;;;;;;;9.37;100.00;98538.06;5152902;27;20051;-74
2022/10/01 09:59:44;;;;;;;2.80;2.00;;;;;;;9.24;100.00;98514.34;5151429;27;20043;-74
2022/10/01 10:02:19;;;;;;;2.63;1.60;;;;;;;9.33;100.00;98534.06;5143928;27;20046;-75
2022/10/01 10:04:46;;;;;;;4.43;1.98;;;;;;;9.23;100.00;98515.41;5148952;27;20051;-75
2022/10/01 10:07:18;;;;;;;1.80;1.63;;;;;;;9.43;100.00;98541.91;5131695;27;20051;-75
2022/10/01 10:09:45;;;;;;;3.85;1.27;;;;;;;9.32;100.00;98491.69;5139987;27;20501;-76
2022/10/01 10:12:28;;;;;;;2.47;1.70;;;;;;;9.39;100.00;98517.00;5151489;27;20520;-75
2022/10/01 10:14:57;;;;;;;2.22;1.48;;;;;;;9.28;100.00;98485.00;5149902;27;20046;-75
2022/10/01 10:17:24;;;;;;;2.60;2.05;;;;;;;9.43;100.00;98483.03;5152502;27;20126;-75
2022/10/01 10:19:52;;;;;;;2.53;1.73;;;;;;;9.34;100.00;98460.63;5151873;27;20046;-75
2022/10/01 10:22:23;;;;;;;3.13;1.17;;;;;;;9.44;100.00;98470.31;5151864;27;20058;-75
2022/10/01 10:24:51;;;;;;;2.75;1.83;;;;;;;9.33;100.00;98458.09;5147588;27;20043;-75
2022/10/01 10:27:25;;;;;;;2.58;1.60;;;;;;;9.54;100.00;98503.38;5152457;27;20047;-75
2022/10/01 10:30:03;;;;;;;3.53;1.75;;;;;;;9.69;100.00;98527.75;5150735;27;20054;-75
2022/10/01 10:32:31;;;;;;;2.88;1.73;;;;;;;9.63;100.00;98512.25;5146540;27;20046;-75
2022/10/01 10:35:03;;;;;;;2.17;1.48;;;;;;;9.66;100.00;98503.69;5141750;27;20069;-75
2022/10/01 10:37:34;;;;;;;1.77;1.25;;;;;;;9.81;100.00;98503.63;5132014;27;20047;-75
2022/10/01 10:40:01;;;;;;;2.38;1.42;;;;;;;9.84;100.00;98508.66;5133353;27;20049;-75
2022/10/01 10:42:28;;;;;;;2.78;1.75;;;;;;;9.89;100.00;98517.91;5151697;27;20046;-75
2022/10/01 10:44:58;;;;;;;1.75;1.15;;;;;;;9.88;100.00;98496.38;5150664;27;20077;-75
2022/10/01 10:47:27;;;;;;;1.60;1.25;;;;;;;9.95;100.00;98510.84;5146111;27;20043;-75
2022/10/01 10:49:55;;;;;;;1.73;1.33;;;;;;;10.15;100.00;98515.59;5137861;27;20482;-75
2022/10/01 10:52:28;;;;;;;3.67;1.63;;;;;;;9.99;100.00;98490.41;5130716;27;20051;-75
2022/10/01 10:54:56;;;;;;;2.67;1.48;;;;;;;10.15;100.00;98499.31;5130765;27;20070;-75
2022/10/01 10:57:26;;;;;;;2.85;1.98;;;;;;;10.26;100.00;98506.88;5146316;27;20054;-75
2022/10/01 10:59:58;;;;;;;2.20;1.42;;;;;;;10.21;100.00;98493.91;5148627;27;20081;-76
2022/10/01 11:02:28;;;;;;;4.93;2.08;;;;;;;10.29;100.00;98482.03;5144661;27;20046;-75
2022/10/01 11:04:57;;;;;;;2.70;1.58;;;;;;;10.40;100.00;98500.53;5147704;27;20058;-76
2022/10/01 11:07:26;;;;;;;3.67;1.25;;;;;;;10.54;100.00;98515.03;5152228;27;20042;-75
2022/10/01 11:10:05;;;;;;;1.30;1.17;;;;;;;10.56;100.00;98504.78;5152076;27;20039;-75
2022/10/01 11:12:47;;;;;;;2.70;1.58;;;;;;;10.41;100.00;98490.50;5142687;27;20051;-76
2022/10/01 11:15:35;;;;;;;2.53;1.35;;;;;;;10.39;100.00;98485.25;5142539;27;20549;-75
2022/10/01 11:18:33;;;;;;;1.05;0.95;;;;;;;10.50;100.00;98488.47;5152120;27;20047;-75
2022/10/01 11:21:15;;;;;;;1.17;1.00;;;;;;;10.62;100.00;98503.97;5135156;27;20071;-76
2022/10/01 11:24:03;;;;;;;3.97;1.23;;;;;;;10.58;100.00;98477.41;5134861;27;20051;-75
2022/10/01 11:26:37;;;;;;;1.42;1.08;;;;;;;10.60;100.00;98481.59;5134320;27;20053;-75
2022/10/01 11:29:20;;;;;;;1.27;1.02;;;;;;;10.61;100.00;98486.00;5154298;27;20042;-75
2022/10/01 11:31:53;;;;;;;1.67;1.20;;;;;;;10.71;100.00;98479.34;5155876;27;20561;-75
2022/10/01 11:34:47;;;;;;;2.35;0.93;;;;;;;10.71;100.00;98498.38;5139189;27;20043;-75
2022/10/01 11:37:29;;;;;;;1.63;1.13;;;;;;;10.63;100.00;98481.19;5135122;27;20059;-75
2022/10/01 11:39:59;;;;;;;6.80;1.17;;;;;;;10.85;100.00;98494.66;5134720;27;20051;-75
2022/10/01 11:42:33;;;;;;;2.22;1.10;;;;;;;10.70;100.00;98491.25;5134339;27;20076;-75
2022/10/01 11:45:07;;;;;;;1.20;0.80;;;;;;;10.91;100.00;98517.50;5145086;27;20062;-76
2022/10/01 11:47:38;;;;;;;3.53;1.35;;;;;;;10.90;100.00;98513.94;5155043;27;20054;-76